Hauptseite
METAR-TAF:

METAR-TAF

Flughäfen :

Shanghai Pudong International Airport

Shanghai-Pudong, China

Breite: 31-07N, Länge: 121-46E, Höhe: 4 m

Beobachtung

Neuester Wetterbericht von vor 27 Minuten, um 20:30 UTC
Wind 4 kt aus Südost
Temperatur 28°C
Luftfeuchtigkeit 84%
Luftdruck 1002 hPa
Sichtweite 10 km oder mehr
keine Wolken unter 1500 m und keine Kumulonimbus oder Gewitterwolken

METAR: ZSPD 232030Z 14002MPS CAVOK 28/25 Q1002 NOSIG

Zeit: 04:57 (20:57 UTC)

Prognose

Neuester Wetterbericht von vor 5 Stunden und 52 Minuten, um 15:05 UTC
Gültige Prognose vom 23 um 18 UTC bis 24 um 24 UTC
Wind 12 kt aus Südost
Sichtweite: 8000 m
Aufgelockert bewölkt in der Höhe von 2000 ft

TAF: ZSPD 231505Z 2318/2424 14006MPS 8000 SCT020 TX33/2406Z TN28/2321Z TN27/2421Z

Wetterbeobachtungen und Prognosen von mehr als 4000 Flughäfen (METAR und TAF Bericht).

Die verfügbaren Stationen werden durch gelbe und rote Markierungen auf der Karte dargestellt.

Führen Sie die Maus auf sie, um den Namen der Station zu sehen.

Darauf klicken, um die Beobachtung von Wetterbeobachtungen und Prognosen zu sehen.

Um die Karte zu ändern : klicken Sie auf den grünen Tasten mit einem schwarzen Kreuz Zum Vergrößern, auf den grünen Button mit einem Gedankenstrich zu verkleinern, oder auf die grünen Pfeile für benachbarte Karten.


METAR-TAF: